sensor_id;sensor_type;location;lat;lon;timestamp;pressure;altitude;pressure_sealevel;temperature;humidity
79136;BME280;68533;51.090;17.216;2023-06-10T00:02:04;100068.03;;;14.48;100.00
79136;BME280;68533;51.090;17.216;2023-06-10T00:04:36;100068.03;;;14.48;100.00
79136;BME280;68533;51.090;17.216;2023-06-10T00:07:05;100076.84;;;14.50;100.00
79136;BME280;68533;51.090;17.216;2023-06-10T00:09:35;100070.47;;;14.50;100.00
79136;BME280;68533;51.090;17.216;2023-06-10T00:12:06;100076.00;;;14.50;100.00
79136;BME280;68533;51.090;17.216;2023-06-10T00:14:35;100073.25;;;14.50;100.00
79136;BME280;68533;51.090;17.216;2023-06-10T00:17:01;100067.72;;;14.50;100.00
79136;BME280;68533;51.090;17.216;2023-06-10T00:19:27;100068.84;;;14.49;100.00
79136;BME280;68533;51.090;17.216;2023-06-10T00:21:56;100071.63;;;14.49;100.00
79136;BME280;68533;51.090;17.216;2023-06-10T00:24:23;100063.94;;;14.46;100.00
79136;BME280;68533;51.090;17.216;2023-06-10T00:26:49;100071.63;;;14.49;100.00
79136;BME280;68533;51.090;17.216;2023-06-10T00:29:15;100061.88;;;14.51;100.00
79136;BME280;68533;51.090;17.216;2023-06-10T00:31:41;100064.13;;;14.49;100.00
79136;BME280;68533;51.090;17.216;2023-06-10T00:34:08;100065.44;;;14.52;100.00
79136;BME280;68533;51.090;17.216;2023-06-10T00:36:34;100068.53;;;14.50;100.00
79136;BME280;68533;51.090;17.216;2023-06-10T00:39:01;100067.06;;;14.53;100.00
79136;BME280;68533;51.090;17.216;2023-06-10T00:41:28;100062.19;;;14.50;100.00
79136;BME280;68533;51.090;17.216;2023-06-10T00:43:54;100067.06;;;14.53;100.00
79136;BME280;68533;51.090;17.216;2023-06-10T00:46:21;100065.09;;;14.53;100.00
79136;BME280;68533;51.090;17.216;2023-06-10T00:48:48;100078.63;;;14.55;100.00
79136;BME280;68533;51.090;17.216;2023-06-10T00:51:16;100077.00;;;14.54;100.00
79136;BME280;68533;51.090;17.216;2023-06-10T00:53:43;100074.22;;;14.54;100.00
79136;BME280;68533;51.090;17.216;2023-06-10T00:56:10;100082.72;;;14.57;100.00
79136;BME280;68533;51.090;17.216;2023-06-10T00:58:36;100073.41;;;14.53;100.00
79136;BME280;68533;51.090;17.216;2023-06-10T01:03:39;100083.03;;;14.56;100.00
79136;BME280;68533;51.090;17.216;2023-06-10T01:06:11;100080.78;;;14.58;100.00
79136;BME280;68533;51.090;17.216;2023-06-10T01:08:49;100079.13;;;14.57;100.00
79136;BME280;68533;51.090;17.216;2023-06-10T01:11:35;100076.69;;;14.55;100.00
79136;BME280;68533;51.090;17.216;2023-06-10T01:14:03;100071.81;;;14.52;100.00
79136;BME280;68533;51.090;17.216;2023-06-10T01:16:31;100073.75;;;14.52;100.00
79136;BME280;68533;51.090;17.216;2023-06-10T01:18:57;100072.59;;;14.53;100.00
79136;BME280;68533;51.090;17.216;2023-06-10T01:21:24;100063.66;;;14.56;100.00
79136;BME280;68533;51.090;17.216;2023-06-10T01:23:54;100065.31;;;14.57;100.00
79136;BME280;68533;51.090;17.216;2023-06-10T01:26:27;100061.72;;;14.56;100.00
79136;BME280;68533;51.090;17.216;2023-06-10T01:28:58;100050.34;;;14.58;100.00
79136;BME280;68533;51.090;17.216;2023-06-10T01:31:55;100059.63;;;14.62;100.00
79136;BME280;68533;51.090;17.216;2023-06-10T01:34:26;100056.34;;;14.60;100.00
79136;BME280;68533;51.090;17.216;2023-06-10T01:36:54;100057.97;;;14.61;100.00
79136;BME280;68533;51.090;17.216;2023-06-10T01:39:23;100059.63;;;14.62;100.00
79136;BME280;68533;51.090;17.216;2023-06-10T01:41:51;100051.19;;;14.67;100.00
79136;BME280;68533;51.090;17.216;2023-06-10T01:44:22;100055.09;;;14.66;100.00
79136;BME280;68533;51.090;17.216;2023-06-10T01:46:48;100052.78;;;14.68;100.00
79136;BME280;68533;51.090;17.216;2023-06-10T01:49:14;100061.59;;;14.70;100.00
79136;BME280;68533;51.090;17.216;2023-06-10T01:51:41;100058.34;;;14.68;100.00
79136;BME280;68533;51.090;17.216;2023-06-10T01:54:07;100067.78;;;14.67;100.00
79136;BME280;68533;51.090;17.216;2023-06-10T01:56:33;100069.28;;;14.73;100.00
79136;BME280;68533;51.090;17.216;2023-06-10T01:58:59;100072.50;;;14.66;100.00
79136;BME280;68533;51.090;17.216;2023-06-10T02:01:25;100068.09;;;14.65;100.00
79136;BME280;68533;51.090;17.216;2023-06-10T02:03:52;100068.41;;;14.64;100.00
79136;BME280;68533;51.090;17.216;2023-06-10T02:06:18;100065.16;;;14.62;100.00
79136;BME280;68533;51.090;17.216;2023-06-10T02:08:44;100065.16;;;14.62;100.00
79136;BME280;68533;51.090;17.216;2023-06-10T02:11:10;100062.38;;;14.62;100.00
79136;BME280;68533;51.090;17.216;2023-06-10T02:13:38;100068.72;;;14.62;100.00
79136;BME280;68533;51.090;17.216;2023-06-10T02:16:04;100067.09;;;14.61;100.00
79136;BME280;68533;51.090;17.216;2023-06-10T02:18:31;100071.19;;;14.64;100.00
79136;BME280;68533;51.090;17.216;2023-06-10T02:20:57;100072.00;;;14.64;100.00
79136;BME280;68533;51.090;17.216;2023-06-10T02:23:23;100065.47;;;14.60;100.00
79136;BME280;68533;51.090;17.216;2023-06-10T02:25:49;100069.88;;;14.61;100.00
79136;BME280;68533;51.090;17.216;2023-06-10T02:28:15;100069.38;;;14.59;100.00
79136;BME280;68533;51.090;17.216;2023-06-10T02:30:42;100062.69;;;14.60;100.00
79136;BME280;68533;51.090;17.216;2023-06-10T02:33:08;100066.28;;;14.61;100.00
79136;BME280;68533;51.090;17.216;2023-06-10T02:35:38;100066.78;;;14.63;100.00
79136;BME280;68533;51.090;17.216;2023-06-10T02:38:04;100065.16;;;14.62;100.00
79136;BME280;68533;51.090;17.216;2023-06-10T02:40:31;100070.69;;;14.62;100.00
79136;BME280;68533;51.090;17.216;2023-06-10T02:42:58;100078.16;;;14.61;100.00
79136;BME280;68533;51.090;17.216;2023-06-10T02:45:25;100069.41;;;14.68;100.00
79136;BME280;68533;51.090;17.216;2023-06-10T02:47:51;100072.66;;;14.70;100.00
79136;BME280;68533;51.090;17.216;2023-06-10T02:50:17;100076.75;;;14.72;100.00
79136;BME280;68533;51.090;17.216;2023-06-10T02:52:43;100074.81;;;14.73;100.00
79136;BME280;68533;51.090;17.216;2023-06-10T02:55:09;100078.41;;;14.73;100.00
79136;BME280;68533;51.090;17.216;2023-06-10T02:57:36;100078.56;;;14.77;100.00
79136;BME280;68533;51.090;17.216;2023-06-10T03:00:02;100083.78;;;14.79;100.00
79136;BME280;68533;51.090;17.216;2023-06-10T03:02:30;100078.56;;;14.77;100.00
79136;BME280;68533;51.090;17.216;2023-06-10T03:04:57;100085.75;;;14.87;100.00
79136;BME280;68533;51.090;17.216;2023-06-10T03:07:23;100087.72;;;14.86;100.00
79136;BME280;68533;51.090;17.216;2023-06-10T03:09:50;100087.72;;;14.86;100.00
79136;BME280;68533;51.090;17.216;2023-06-10T03:12:16;100090.78;;;14.85;100.00
79136;BME280;68533;51.090;17.216;2023-06-10T03:14:42;100092.75;;;14.84;100.00
79136;BME280;68533;51.090;17.216;2023-06-10T03:17:08;100098.47;;;14.88;100.00
79136;BME280;68533;51.090;17.216;2023-06-10T03:19:37;100099.28;;;14.88;100.00
79136;BME280;68533;51.090;17.216;2023-06-10T03:22:11;100101.41;;;14.91;100.00
79136;BME280;68533;51.090;17.216;2023-06-10T03:24:38;100107.75;;;14.92;100.00
79136;BME280;68533;51.090;17.216;2023-06-10T03:27:09;100099.75;;;14.90;100.00
79136;BME280;68533;51.090;17.216;2023-06-10T03:29:37;100108.75;;;14.96;100.00
79136;BME280;68533;51.090;17.216;2023-06-10T03:32:03;100099.47;;;15.00;100.00
79136;BME280;68533;51.090;17.216;2023-06-10T03:34:29;100100.31;;;15.01;100.00
79136;BME280;68533;51.090;17.216;2023-06-10T03:36:56;100107.28;;;14.98;100.00
79136;BME280;68533;51.090;17.216;2023-06-10T03:39:23;100110.06;;;14.98;100.00
79136;BME280;68533;51.090;17.216;2023-06-10T03:41:50;100110.75;;;15.04;100.00
79136;BME280;68533;51.090;17.216;2023-06-10T03:44:16;100109.59;;;15.05;100.00
79136;BME280;68533;51.090;17.216;2023-06-10T03:46:42;100113.16;;;15.05;100.00
79136;BME280;68533;51.090;17.216;2023-06-10T03:49:08;100105.06;;;15.09;100.00
79136;BME280;68533;51.090;17.216;2023-06-10T03:51:35;100110.28;;;15.10;100.00
79136;BME280;68533;51.090;17.216;2023-06-10T03:54:02;100118.44;;;15.15;100.00
79136;BME280;68533;51.090;17.216;2023-06-10T03:56:28;100120.56;;;15.19;100.00
79136;BME280;68533;51.090;17.216;2023-06-10T03:58:55;100123.34;;;15.19;100.00
79136;BME280;68533;51.090;17.216;2023-06-10T04:01:21;100128.88;;;15.19;100.00
79136;BME280;68533;51.090;17.216;2023-06-10T04:03:49;100128.22;;;15.22;100.00
79136;BME280;68533;51.090;17.216;2023-06-10T04:06:17;100135.38;;;15.23;100.00
79136;BME280;68533;51.090;17.216;2023-06-10T04:08:43;100120.22;;;15.20;100.00
79136;BME280;68533;51.090;17.216;2023-06-10T04:11:09;100126.25;;;15.22;99.76
79136;BME280;68533;51.090;17.216;2023-06-10T04:13:35;100125.44;;;15.22;100.00
79136;BME280;68533;51.090;17.216;2023-06-10T04:16:02;100124.63;;;15.21;100.00
79136;BME280;68533;51.090;17.216;2023-06-10T04:18:30;100125.13;;;15.23;100.00
79136;BME280;68533;51.090;17.216;2023-06-10T04:20:55;100129.22;;;15.26;100.00
79136;BME280;68533;51.090;17.216;2023-06-10T04:23:22;100125.44;;;15.22;100.00
79136;BME280;68533;51.090;17.216;2023-06-10T04:25:48;100126.75;;;15.24;100.00
79136;BME280;68533;51.090;17.216;2023-06-10T04:28:14;100134.41;;;15.27;100.00
79136;BME280;68533;51.090;17.216;2023-06-10T04:30:40;100135.22;;;15.28;99.98
79136;BME280;68533;51.090;17.216;2023-06-10T04:33:07;100129.56;;;15.33;99.51
79136;BME280;68533;51.090;17.216;2023-06-10T04:35:34;100130.84;;;15.35;99.13
79136;BME280;68533;51.090;17.216;2023-06-10T04:38:01;100130.19;;;15.30;99.63
79136;BME280;68533;51.090;17.216;2023-06-10T04:40:29;100134.75;;;15.34;99.51
79136;BME280;68533;51.090;17.216;2023-06-10T04:42:55;100131.66;;;15.36;99.73
79136;BME280;68533;51.090;17.216;2023-06-10T04:45:21;100132.66;;;15.40;99.44
79136;BME280;68533;51.090;17.216;2023-06-10T04:47:48;100125.81;;;15.46;99.30
79136;BME280;68533;51.090;17.216;2023-06-10T04:50:13;100138.38;;;15.52;99.05
79136;BME280;68533;51.090;17.216;2023-06-10T04:52:40;100142.16;;;15.65;98.64
79136;BME280;68533;51.090;17.216;2023-06-10T04:55:07;100144.47;;;15.63;99.33
79136;BME280;68533;51.090;17.216;2023-06-10T04:57:35;100135.16;;;15.67;98.21
79136;BME280;68533;51.090;17.216;2023-06-10T05:00:02;100139.41;;;15.65;98.81
79136;BME280;68533;51.090;17.216;2023-06-10T05:02:31;100137.63;;;15.69;98.48
79136;BME280;68533;51.090;17.216;2023-06-10T05:04:57;100142.19;;;15.73;99.36
79136;BME280;68533;51.090;17.216;2023-06-10T05:07:23;100144.97;;;15.82;98.18
79136;BME280;68533;51.090;17.216;2023-06-10T05:09:50;100150.34;;;15.87;98.97
79136;BME280;68533;51.090;17.216;2023-06-10T05:12:16;100155.38;;;15.93;97.80
79136;BME280;68533;51.090;17.216;2023-06-10T05:14:42;100150.66;;;16.03;96.10
79136;BME280;68533;51.090;17.216;2023-06-10T05:17:08;100151.16;;;16.13;97.08
79136;BME280;68533;51.090;17.216;2023-06-10T05:19:34;100166.16;;;16.21;96.23
79136;BME280;68533;51.090;17.216;2023-06-10T05:22:02;100166.16;;;16.29;97.30
79136;BME280;68533;51.090;17.216;2023-06-10T05:24:28;100170.41;;;16.36;96.02
79136;BME280;68533;51.090;17.216;2023-06-10T05:26:55;100176.09;;;16.39;97.00
79136;BME280;68533;51.090;17.216;2023-06-10T05:29:21;100177.53;;;16.45;97.54
79136;BME280;68533;51.090;17.216;2023-06-10T05:31:47;100169.06;;;16.50;96.76
79136;BME280;68533;51.090;17.216;2023-06-10T05:34:12;100168.06;;;16.55;96.39
79136;BME280;68533;51.090;17.216;2023-06-10T05:36:39;100170.03;;;16.72;96.64
79136;BME280;68533;51.090;17.216;2023-06-10T05:39:05;100172.91;;;16.84;95.72
79136;BME280;68533;51.090;17.216;2023-06-10T05:41:31;100178.41;;;17.01;95.31
79136;BME280;68533;51.090;17.216;2023-06-10T05:43:57;100179.94;;;17.19;95.43
79136;BME280;68533;51.090;17.216;2023-06-10T05:46:23;100175.22;;;17.20;94.65
79136;BME280;68533;51.090;17.216;2023-06-10T05:48:49;100181.13;;;17.18;93.48
79136;BME280;68533;51.090;17.216;2023-06-10T05:51:15;100180.59;;;17.25;94.32
79136;BME280;68533;51.090;17.216;2023-06-10T05:53:41;100188.59;;;17.26;93.80
79136;BME280;68533;51.090;17.216;2023-06-10T05:56:07;100195.41;;;17.37;93.00
79136;BME280;68533;51.090;17.216;2023-06-10T05:58:33;100194.50;;;17.25;92.75
79136;BME280;68533;51.090;17.216;2023-06-10T06:01:00;100197.44;;;17.20;92.49
79136;BME280;68533;51.090;17.216;2023-06-10T06:03:26;100199.31;;;17.07;91.31
79136;BME280;68533;51.090;17.216;2023-06-10T06:05:54;100202.53;;;17.18;92.10
79136;BME280;68533;51.090;17.216;2023-06-10T06:08:20;100195.97;;;17.22;92.32
79136;BME280;68533;51.090;17.216;2023-06-10T06:10:47;100198.06;;;17.34;91.25
79136;BME280;68533;51.090;17.216;2023-06-10T06:13:15;100191.47;;;17.38;90.24
79136;BME280;68533;51.090;17.216;2023-06-10T06:15:41;100204.31;;;17.52;90.36
79136;BME280;68533;51.090;17.216;2023-06-10T06:18:07;100200.19;;;17.58;89.60
79136;BME280;68533;51.090;17.216;2023-06-10T06:20:34;100197.38;;;17.66;89.51
79136;BME280;68533;51.090;17.216;2023-06-10T06:22:59;100199.91;;;17.80;89.23
79136;BME280;68533;51.090;17.216;2023-06-10T06:25:26;100195.72;;;17.95;88.46
79136;BME280;68533;51.090;17.216;2023-06-10T06:27:51;100192.00;;;18.11;88.92
79136;BME280;68533;51.090;17.216;2023-06-10T06:30:18;100196.78;;;18.23;88.46
79136;BME280;68533;51.090;17.216;2023-06-10T06:32:45;100199.25;;;18.24;85.41
79136;BME280;68533;51.090;17.216;2023-06-10T06:35:11;100203.13;;;18.11;87.09
79136;BME280;68533;51.090;17.216;2023-06-10T06:37:37;100213.16;;;18.24;89.51
79136;BME280;68533;51.090;17.216;2023-06-10T06:40:03;100215.59;;;18.26;89.42
79136;BME280;68533;51.090;17.216;2023-06-10T06:42:29;100213.78;;;18.30;89.58
79136;BME280;68533;51.090;17.216;2023-06-10T06:44:56;100212.97;;;18.30;87.78
79136;BME280;68533;51.090;17.216;2023-06-10T06:47:22;100220.34;;;18.26;88.27
79136;BME280;68533;51.090;17.216;2023-06-10T06:49:48;100220.09;;;18.18;88.34
79136;BME280;68533;51.090;17.216;2023-06-10T06:52:15;100233.34;;;18.21;90.04
79136;BME280;68533;51.090;17.216;2023-06-10T06:54:41;100234.28;;;18.26;89.38
79136;BME280;68533;51.090;17.216;2023-06-10T06:57:07;100227.06;;;18.45;88.93
79136;BME280;68533;51.090;17.216;2023-06-10T06:59:43;100225.34;;;18.53;89.59
79136;BME280;68533;51.090;17.216;2023-06-10T07:02:08;100244.06;;;18.52;89.94
79136;BME280;68533;51.090;17.216;2023-06-10T07:04:36;100242.59;;;18.46;88.95
79136;BME280;68533;51.090;17.216;2023-06-10T07:07:02;100241.19;;;18.40;89.00
79136;BME280;68533;51.090;17.216;2023-06-10T07:09:28;100244.53;;;18.34;88.85
79136;BME280;68533;51.090;17.216;2023-06-10T07:11:54;100241.81;;;18.25;89.02
79136;BME280;68533;51.090;17.216;2023-06-10T07:14:20;100238.09;;;18.21;88.53
79136;BME280;68533;51.090;17.216;2023-06-10T07:16:46;100253.69;;;18.34;88.22
79136;BME280;68533;51.090;17.216;2023-06-10T07:19:15;100248.66;;;18.28;87.63
79136;BME280;68533;51.090;17.216;2023-06-10T07:21:41;100247.03;;;18.27;87.91
79136;BME280;68533;51.090;17.216;2023-06-10T07:24:09;100253.28;;;18.44;86.17
79136;BME280;68533;51.090;17.216;2023-06-10T07:26:35;100252.59;;;18.47;85.41
79136;BME280;68533;51.090;17.216;2023-06-10T07:29:01;100257.69;;;18.45;84.92
79136;BME280;68533;51.090;17.216;2023-06-10T07:31:27;100252.22;;;18.37;86.42
79136;BME280;68533;51.090;17.216;2023-06-10T07:33:53;100255.19;;;18.52;84.66
79136;BME280;68533;51.090;17.216;2023-06-10T07:36:19;100252.69;;;18.59;84.99
79136;BME280;68533;51.090;17.216;2023-06-10T07:38:45;100254.22;;;18.69;84.14
79136;BME280;68533;51.090;17.216;2023-06-10T07:41:11;100252.75;;;18.84;82.52
79136;BME280;68533;51.090;17.216;2023-06-10T07:43:37;100252.34;;;19.06;80.69
79136;BME280;68533;51.090;17.216;2023-06-10T07:46:03;100258.66;;;19.27;83.25
79136;BME280;68533;51.090;17.216;2023-06-10T07:48:31;100261.88;;;19.62;82.43
79136;BME280;68533;51.090;17.216;2023-06-10T07:50:57;100260.59;;;19.60;79.92
79136;BME280;68533;51.090;17.216;2023-06-10T07:53:24;100265.00;;;19.97;77.99
79136;BME280;68533;51.090;17.216;2023-06-10T07:55:50;100270.63;;;20.25;79.04
79136;BME280;68533;51.090;17.216;2023-06-10T07:58:16;100273.34;;;21.17;74.42
79136;BME280;68533;51.090;17.216;2023-06-10T08:00:42;100259.53;;;22.57;71.07
79136;BME280;68533;51.090;17.216;2023-06-10T08:03:08;100268.97;;;22.88;69.80
79136;BME280;68533;51.090;17.216;2023-06-10T08:05:34;100268.13;;;23.71;66.96
79136;BME280;68533;51.090;17.216;2023-06-10T08:08:02;100266.81;;;24.18;65.10
79136;BME280;68533;51.090;17.216;2023-06-10T08:10:28;100265.72;;;24.52;60.84
79136;BME280;68533;51.090;17.216;2023-06-10T08:12:55;100267.38;;;25.24;62.76
79136;BME280;68533;51.090;17.216;2023-06-10T08:15:21;100268.47;;;24.49;59.35
79136;BME280;68533;51.090;17.216;2023-06-10T08:17:47;100265.63;;;24.45;59.18
79136;BME280;68533;51.090;17.216;2023-06-10T08:20:13;100263.06;;;24.96;56.29
79136;BME280;68533;51.090;17.216;2023-06-10T08:22:39;100278.66;;;24.60;59.18
79136;BME280;68533;51.090;17.216;2023-06-10T08:25:05;100265.53;;;24.12;58.59
79136;BME280;68533;51.090;17.216;2023-06-10T08:27:32;100269.53;;;24.67;57.03
79136;BME280;68533;51.090;17.216;2023-06-10T08:29:58;100266.41;;;23.21;61.53
79136;BME280;68533;51.090;17.216;2023-06-10T08:32:26;100276.38;;;24.40;58.97
79136;BME280;68533;51.090;17.216;2023-06-10T08:34:52;100272.44;;;24.77;61.22
79136;BME280;68533;51.090;17.216;2023-06-10T08:37:19;100279.19;;;23.87;60.39
79136;BME280;68533;51.090;17.216;2023-06-10T08:39:45;100285.66;;;22.45;62.49
79136;BME280;68533;51.090;17.216;2023-06-10T08:44:37;100282.56;;;21.96;67.63
79136;BME280;68533;51.090;17.216;2023-06-10T08:47:15;100283.09;;;22.02;67.16
79136;BME280;68533;51.090;17.216;2023-06-10T08:49:46;100284.94;;;23.06;64.31
79136;BME280;68533;51.090;17.216;2023-06-10T08:52:17;100294.56;;;21.97;67.90
79136;BME280;68533;51.090;17.216;2023-06-10T08:54:49;100298.28;;;23.13;64.70
79136;BME280;68533;51.090;17.216;2023-06-10T08:57:17;100294.72;;;23.81;62.34
79136;BME280;68533;51.090;17.216;2023-06-10T08:59:46;100296.81;;;24.36;60.61
79136;BME280;68533;51.090;17.216;2023-06-10T09:02:14;100296.91;;;24.73;60.03
79136;BME280;68533;51.090;17.216;2023-06-10T09:04:42;100299.91;;;25.21;59.55
79136;BME280;68533;51.090;17.216;2023-06-10T09:07:10;100309.16;;;24.88;60.38
79136;BME280;68533;51.090;17.216;2023-06-10T09:09:37;100296.69;;;25.19;60.25
79136;BME280;68533;51.090;17.216;2023-06-10T09:12:04;100292.91;;;24.74;55.27
79136;BME280;68533;51.090;17.216;2023-06-10T09:14:30;100287.56;;;25.33;54.01
79136;BME280;68533;51.090;17.216;2023-06-10T09:16:56;100286.78;;;24.65;54.97
79136;BME280;68533;51.090;17.216;2023-06-10T09:19:25;100278.09;;;24.48;55.69
79136;BME280;68533;51.090;17.216;2023-06-10T09:21:51;100286.28;;;25.64;54.30
79136;BME280;68533;51.090;17.216;2023-06-10T09:24:16;100282.75;;;25.33;53.87
79136;BME280;68533;51.090;17.216;2023-06-10T09:26:43;100286.53;;;25.96;51.39
79136;BME280;68533;51.090;17.216;2023-06-10T09:29:09;100285.09;;;26.92;54.84
79136;BME280;68533;51.090;17.216;2023-06-10T09:31:38;100288.75;;;27.03;53.23
79136;BME280;68533;51.090;17.216;2023-06-10T09:34:14;100274.38;;;27.54;49.83
79136;BME280;68533;51.090;17.216;2023-06-10T09:36:41;100280.53;;;26.70;50.96
79136;BME280;68533;51.090;17.216;2023-06-10T09:39:17;100273.25;;;25.52;52.60
79136;BME280;68533;51.090;17.216;2023-06-10T09:41:45;100267.56;;;25.41;53.54
79136;BME280;68533;51.090;17.216;2023-06-10T09:44:19;100273.69;;;26.71;50.69
79136;BME280;68533;51.090;17.216;2023-06-10T09:46:47;100260.16;;;27.04;52.21
79136;BME280;68533;51.090;17.216;2023-06-10T09:49:13;100257.41;;;27.54;49.78
79136;BME280;68533;51.090;17.216;2023-06-10T09:51:53;100266.19;;;28.48;46.52
79136;BME280;68533;51.090;17.216;2023-06-10T09:54:20;100262.03;;;26.76;51.07
79136;BME280;68533;51.090;17.216;2023-06-10T09:56:48;100256.22;;;27.62;51.02
79136;BME280;68533;51.090;17.216;2023-06-10T09:59:14;100261.38;;;27.35;51.84
79136;BME280;68533;51.090;17.216;2023-06-10T10:01:40;100256.09;;;27.05;45.83
79136;BME280;68533;51.090;17.216;2023-06-10T10:04:06;100252.09;;;28.09;46.37
79136;BME280;68533;51.090;17.216;2023-06-10T10:06:34;100256.84;;;28.58;47.65
79136;BME280;68533;51.090;17.216;2023-06-10T10:09:01;100250.88;;;27.11;47.43
79136;BME280;68533;51.090;17.216;2023-06-10T10:11:31;100230.69;;;27.05;48.30
79136;BME280;68533;51.090;17.216;2023-06-10T10:13:58;100242.91;;;25.75;52.38
79136;BME280;68533;51.090;17.216;2023-06-10T10:16:35;100245.44;;;26.56;52.09
79136;BME280;68533;51.090;17.216;2023-06-10T10:19:23;100238.72;;;26.10;53.38
79136;BME280;68533;51.090;17.216;2023-06-10T10:22:04;100227.97;;;25.24;55.33
79136;BME280;68533;51.090;17.216;2023-06-10T10:24:40;100232.53;;;24.98;55.42
79136;BME280;68533;51.090;17.216;2023-06-10T10:27:17;100216.50;;;24.69;57.35
79136;BME280;68533;51.090;17.216;2023-06-10T10:29:45;100222.66;;;24.18;56.84
79136;BME280;68533;51.090;17.216;2023-06-10T10:32:15;100222.94;;;24.10;56.38
79136;BME280;68533;51.090;17.216;2023-06-10T10:34:47;100218.03;;;24.03;58.61
79136;BME280;68533;51.090;17.216;2023-06-10T10:37:17;100211.78;;;23.87;58.19
79136;BME280;68533;51.090;17.216;2023-06-10T10:39:44;100209.63;;;23.50;58.04
79136;BME280;68533;51.090;17.216;2023-06-10T10:42:11;100209.13;;;23.22;57.50
79136;BME280;68533;51.090;17.216;2023-06-10T10:44:38;100200.91;;;23.10;57.63
79136;BME280;68533;51.090;17.216;2023-06-10T10:47:08;100198.22;;;23.40;59.89
79136;BME280;68533;51.090;17.216;2023-06-10T10:49:35;100194.44;;;23.78;59.90
79136;BME280;68533;51.090;17.216;2023-06-10T10:52:03;100204.50;;;25.57;52.06
79136;BME280;68533;51.090;17.216;2023-06-10T10:54:32;100191.06;;;24.92;50.68
79136;BME280;68533;51.090;17.216;2023-06-10T10:57:13;100197.31;;;26.21;50.02
79136;BME280;68533;51.090;17.216;2023-06-10T11:02:19;100190.00;;;27.92;46.65
79136;BME280;68533;51.090;17.216;2023-06-10T11:04:58;100185.56;;;27.84;45.95
79136;BME280;68533;51.090;17.216;2023-06-10T11:07:25;100186.69;;;28.14;45.39
79136;BME280;68533;51.090;17.216;2023-06-10T11:10:17;100206.38;;;29.75;43.88
79136;BME280;68533;51.090;17.216;2023-06-10T11:12:51;100204.06;;;28.20;41.76
79136;BME280;68533;51.090;17.216;2023-06-10T11:15:22;100196.81;;;28.23;42.97
79136;BME280;68533;51.090;17.216;2023-06-10T11:18:12;100190.41;;;27.76;42.66
79136;BME280;68533;51.090;17.216;2023-06-10T11:29:04;100181.53;;;27.28;42.71
79136;BME280;68533;51.090;17.216;2023-06-10T11:31:51;100187.59;;;27.19;43.72
79136;BME280;68533;51.090;17.216;2023-06-10T11:34:23;100190.69;;;26.68;41.71
79136;BME280;68533;51.090;17.216;2023-06-10T11:36:51;100190.38;;;28.01;39.81
79136;BME280;68533;51.090;17.216;2023-06-10T11:39:19;100189.94;;;28.20;39.43
79136;BME280;68533;51.090;17.216;2023-06-10T11:41:45;100201.25;;;28.06;41.66
79136;BME280;68533;51.090;17.216;2023-06-10T11:44:13;100194.84;;;27.77;40.13
79136;BME280;68533;51.090;17.216;2023-06-10T11:46:40;100191.88;;;26.60;43.78
79136;BME280;68533;51.090;17.216;2023-06-10T11:49:08;100202.28;;;25.76;43.19
79136;BME280;68533;51.090;17.216;2023-06-10T11:51:36;100187.19;;;27.10;38.08
79136;BME280;68533;51.090;17.216;2023-06-10T11:54:03;100187.91;;;28.10;39.45
79136;BME280;68533;51.090;17.216;2023-06-10T11:56:31;100185.19;;;27.67;39.23
79136;BME280;68533;51.090;17.216;2023-06-10T11:59:07;100181.53;;;27.10;40.42
79136;BME280;68533;51.090;17.216;2023-06-10T12:01:35;100183.13;;;27.08;39.49
79136;BME280;68533;51.090;17.216;2023-06-10T12:04:05;100192.00;;;27.02;38.60
79136;BME280;68533;51.090;17.216;2023-06-10T12:06:43;100183.84;;;26.73;40.51
79136;BME280;68533;51.090;17.216;2023-06-10T12:09:17;100187.88;;;26.64;41.63
79136;BME280;68533;51.090;17.216;2023-06-10T12:11:44;100190.66;;;26.57;40.89
79136;BME280;68533;51.090;17.216;2023-06-10T12:14:10;100183.13;;;26.93;40.49
79136;BME280;68533;51.090;17.216;2023-06-10T12:16:36;100183.75;;;26.37;40.30
79136;BME280;68533;51.090;17.216;2023-06-10T12:19:04;100178.22;;;26.76;41.88
79136;BME280;68533;51.090;17.216;2023-06-10T12:21:32;100175.78;;;26.71;37.15
79136;BME280;68533;51.090;17.216;2023-06-10T12:24:04;100176.69;;;27.21;37.87
79136;BME280;68533;51.090;17.216;2023-06-10T12:26:53;100172.63;;;26.90;38.12
79136;BME280;68533;51.090;17.216;2023-06-10T12:29:23;100177.13;;;27.41;37.72
79136;BME280;68533;51.090;17.216;2023-06-10T12:32:03;100159.38;;;27.40;36.78
79136;BME280;68533;51.090;17.216;2023-06-10T12:34:32;100152.03;;;26.83;39.75
79136;BME280;68533;51.090;17.216;2023-06-10T12:37:00;100154.91;;;27.68;36.97
79136;BME280;68533;51.090;17.216;2023-06-10T12:39:27;100158.84;;;26.57;39.11
79136;BME280;68533;51.090;17.216;2023-06-10T12:41:54;100157.97;;;26.42;38.22
79136;BME280;68533;51.090;17.216;2023-06-10T12:44:31;100144.03;;;27.27;37.41
79136;BME280;68533;51.090;17.216;2023-06-10T12:46:57;100153.31;;;27.70;36.68
79136;BME280;68533;51.090;17.216;2023-06-10T12:49:24;100146.00;;;27.84;33.60
79136;BME280;68533;51.090;17.216;2023-06-10T12:51:52;100150.91;;;27.62;33.10
79136;BME280;68533;51.090;17.216;2023-06-10T12:54:19;100145.22;;;27.72;31.31
79136;BME280;68533;51.090;17.216;2023-06-10T12:56:45;100154.91;;;27.64;31.20